• Join FlightAware (Why Join?)
  • Login
  • US Flag 
08:37PM EDT


 

Airport Tracker/Info


-or-


 

Live Flight TrackerFlight Track Log ✈ DAL1515 ✈ 03-Nov-2013 ✈ KATL - KALB

Flight Track Log - Related Links

Times and Time Zones

All times are in EST time to prevent confusion due to time zone crossing. See the DAL1515 flight status page for this flight to view local times or setup timezone preferences in your user account.

Time Position Orientation Groundspeed Altitude Reporting Facility
EST Latitude Longitude Course Direction KTS MPH feet Rate Location/Type
07:19PM 33.6478 -84.3733 352° North 447 514 2,700  Level Atlanta Center
07:20PM 33.6603 -84.2908 80° East 333 383 4,900 2,640 Climbing Atlanta Center
07:21PM 33.6794 -84.2086 74° East 272 313 8,000 2,520 Climbing Atlanta Center
07:22PM 33.9274 -84.1406 North  Level Estimated
07:22PM 33.7442 -84.1711 26° Northeast 292 336 10,000  Level Atlanta Center
07:23PM 34.0242 -84.0444 11° North  Level Estimated
07:23PM 33.8275 -84.1814 354° North 284 327 10,100  Level Atlanta Center
07:24PM 34.1482 -84.0667 352° North  Level FlightAware Approximate
07:24PM 33.9108 -84.2417 329° Northwest 324 373 11,800  Level Atlanta Center
07:25PM 34.2722 -84.0891 352° North  Level FlightAware Approximate
07:25PM 34.0111 -84.2769 344° North 350 403 14,300  Level Atlanta Center
07:26PM 34.1197 -84.2797 359° North 369 425 16,800 2,100 Climbing Atlanta Center
07:27PM 34.2406 -84.2825 359° North 411 473 18,600 1,860 Climbing Atlanta Center
07:28PM 34.3597 -84.2653 North 423 487 20,600 1,740 Climbing Atlanta Center
07:29PM 34.4850 -84.2353 11° North 441 507 22,100 1,800 Climbing Atlanta Center
07:30PM 34.6081 -84.2053 11° North 453 521 24,200 1,800 Climbing Atlanta Center
07:31PM 34.7314 -84.1803 North 448 516 25,700 1,620 Climbing Atlanta Center
07:32PM 34.8586 -84.1503 11° North 448 516 27,500 2,460 Climbing Atlanta Center
07:33PM 34.9797 -84.1200 12° North 453 521 30,700 2,100 Climbing Atlanta Center
07:34PM 35.0922 -84.0922 11° North 430 495 31,700 840 Climbing Atlanta Center
07:35PM 35.2092 -84.0642 11° North 417 480 32,400 600 Climbing Atlanta Center
07:36PM 35.3261 -84.0361 11° North 417 480 33,000 600 Climbing Atlanta Center
07:37PM 35.4450 -84.0081 11° North 427 491 33,600 600 Climbing Atlanta Center
07:38PM 35.5639 -83.9775 12° North 433 498 34,300 660 Climbing Atlanta Center
07:39PM 35.6847 -83.9467 12° North 433 498 35,000 300 Climbing Atlanta Center
07:40PM 35.8017 -83.9183 11° North 433 498 35,000  Level Atlanta Center
07:41PM 35.9225 -83.8797 15° North 433 498 35,000  Level Atlanta Center
07:42PM 36.0372 -83.8128 25° Northeast 439 505 35,000  Level Atlanta Center
07:43PM 36.1497 -83.7406 27° Northeast 444 511 35,000  Level Atlanta Center
07:44PM 36.2600 -83.6653 29° Northeast 444 511 35,000  Level Atlanta Center
07:45PM 36.3536 -83.5800 36° Northeast 454 522 35,000  Level Atlanta Center
07:47PM 36.4953 -83.4517 36° Northeast 466 536 35,000  Level Indianapolis Center
07:48PM 36.6039 -83.3636 33° Northeast 462 532 35,000  Level Indianapolis Center
07:49PM 36.7092 -83.2672 36° Northeast 464 534 35,000  Level Indianapolis Center
07:50PM 36.8144 -83.1722 36° Northeast 464 534 35,000  Level Indianapolis Center
07:51PM 36.9206 -83.0772 36° Northeast 463 533 35,000  Level Indianapolis Center
07:52PM 37.0306 -82.9794 35° Northeast 471 542 35,000  Level Indianapolis Center
07:53PM 37.1364 -82.8822 36° Northeast 465 535 35,000  Level Indianapolis Center
07:54PM 37.2411 -82.7889 35° Northeast 460 529 35,000  Level Indianapolis Center
07:55PM 37.3464 -82.6950 35° Northeast 462 532 35,000  Level Indianapolis Center
07:56PM 37.4503 -82.6014 36° Northeast 459 528 35,000  Level Indianapolis Center
07:57PM 37.5717 -82.4939 35° Northeast 456 525 35,000  Level Indianapolis Center
07:58PM 37.6747 -82.3992 36° Northeast 457 526 35,000  Level Indianapolis Center
07:59PM 37.7786 -82.3058 35° Northeast 456 525 35,000  Level Indianapolis Center
08:00PM 37.8828 -82.2106 36° Northeast 458 527 35,000  Level Indianapolis Center
08:01PM 37.9897 -82.1092 37° Northeast 462 532 35,000  Level Indianapolis Center
08:02PM 38.0928 -82.0114 37° Northeast 462 532 35,000  Level Indianapolis Center
08:03PM 38.1975 -81.9142 36° Northeast 463 533 35,000  Level Indianapolis Center
08:04PM 38.3000 -81.8181 36° Northeast 459 528 35,000  Level Indianapolis Center
08:05PM 38.3969 -81.7069 42° Northeast 466 536 35,000  Level Indianapolis Center
08:06PM 38.4836 -81.5806 49° Northeast 474 545 35,000  Level Indianapolis Center
08:07PM 38.5864 -81.4300 49° Northeast 476 548 35,000  Level Indianapolis Center
08:08PM 38.6736 -81.3069 48° Northeast 478 550 35,000  Level Indianapolis Center
08:09PM 38.7606 -81.1822 48° Northeast 475 547 35,000  Level Indianapolis Center
08:10PM 38.8481 -81.0553 48° Northeast 476 548 35,000  Level Indianapolis Center
08:11PM 38.9378 -80.9258 48° Northeast 483 556 35,000  Level Indianapolis Center
08:12PM 39.0247 -80.7989 49° Northeast 478 550 35,000  Level Indianapolis Center
08:13PM 39.1331 -80.6492 47° Northeast 474 545 35,000  Level Indianapolis Center
08:14PM 39.2233 -80.5231 47° Northeast 477 549 35,000  Level Indianapolis Center
08:15PM 39.3311 -80.4325 33° Northeast 457 526 35,000  Level Indianapolis Center
08:16PM 39.4406 -80.3494 30° Northeast 457 526 35,000  Level Indianapolis Center
08:17PM 39.5508 -80.2647 31° Northeast 459 528 35,000  Level Indianapolis Center
08:19PM 39.6589 -80.1808 31° Northeast 454 522 35,000  Level Indianapolis Center
08:19PM 39.7089 -80.1461 28° Northeast 452 520 35,000  Level Cleveland Center
08:20PM 39.8369 -80.0394 33° Northeast 457 526 35,000  Level Cleveland Center
08:21PM 39.9225 -79.9128 49° Northeast 469 540 35,000  Level Cleveland Center
08:22PM 40.0036 -79.7756 52° Northeast 479 551 35,000  Level Cleveland Center
08:23PM 40.0828 -79.6372 53° Northeast 481 554 35,000  Level Cleveland Center
08:24PM 40.1622 -79.4994 53° Northeast 480 552 35,000  Level Cleveland Center
08:25PM 40.2572 -79.3358 53° Northeast 477 549 35,000  Level Cleveland Center
08:26PM 40.3344 -79.1975 54° Northeast 474 545 35,000  Level Cleveland Center
08:27PM 40.4142 -79.0606 53° Northeast 475 547 35,000  Level Cleveland Center
08:28PM 40.4928 -78.9211 53° Northeast 478 550 35,000  Level Cleveland Center
08:29PM 40.5767 -78.7428 58° Northeast 483 556 35,000  Level Cleveland Center
08:30PM 40.6433 -78.5919 60° Northeast 484 557 35,000  Level Cleveland Center
08:31PM 40.7122 -78.4439 58° Northeast 482 555 35,000  Level Cleveland Center
08:32PM 40.7811 -78.2939 59° Northeast 484 557 35,000  Level Cleveland Center
08:33PM 40.8489 -78.1433 59° Northeast 485 558 35,000  Level Cleveland Center
08:35PM 40.9336 -77.9664 58° Northeast 482 555 35,000 -660 Level Cleveland Center
08:36PM 41.0136 -77.8331 51° Northeast 470 541 33,700 -1,500 Descending Cleveland Center
08:36PM 41.0783 -77.7189 53° Northeast 467 537 32,200 -1,380 Descending New York Center
08:37PM 41.1550 -77.5861 52° Northeast 462 532 31,200 -1,500 Descending New York Center
08:38PM 41.2353 -77.4536 51° Northeast 457 526 29,300 -1,140 Descending New York Center
08:39PM 41.3094 -77.3228 53° Northeast 457 526 29,000 -180 Descending New York Center
08:40PM 41.3875 -77.1892 52° Northeast 457 526 29,000  Level New York Center
08:41PM 41.4706 -77.0392 54° Northeast 463 533 29,000  Level New York Center
08:42PM 41.5464 -76.9050 53° Northeast 463 533 29,000  Level New York Center
08:43PM 41.6239 -76.7706 52° Northeast 463 533 29,000  Level New York Center
08:44PM 41.6906 -76.6486 54° Northeast 457 526 29,000  Level New York Center
08:45PM 41.7747 -76.5003 53° Northeast 457 526 29,000  Level New York Center
08:48PM 41.9517 -76.1886 53° Northeast 455 524 29,000  Level Boston Center
08:49PM 42.0261 -76.0539 53° Northeast 452 520 29,000 -600 Level Boston Center
08:50PM 42.1003 -75.9208 53° Northeast 447 514 27,800 -1,920 Descending Boston Center
08:51PM 42.1725 -75.7903 53° Northeast 439 505 25,200 -1,920 Descending Boston Center
08:52PM 42.2439 -75.6636 53° Northeast 430 495 24,000 -780 Descending Boston Center
08:53PM 42.3117 -75.5000 61° Northeast 421 484 23,700 -420 Descending Boston Center
08:54PM 42.3544 -75.3400 70° East 449 517 23,200 -1,260 Descending Boston Center
08:55PM 42.3947 -75.1847 71° East 444 511 21,200 -2,220 Descending Boston Center
08:56PM 42.4339 -75.0356 70° East 428 493 18,800 -1,920 Descending Boston Center
08:57PM 42.4686 -74.8992 71° East 421 484 17,700 -1,320 Descending Boston Center
08:57PM 42.4725 -74.8889 63° Northeast 421 484 17,500 -1,800 Descending Boston Center
08:57PM 42.4839 -74.8436 71° East 414 476 17,000 -1,740 Descending Boston Center
08:58PM 42.5119 -74.7314 71° East 420 483 15,700 -1,620 Descending Boston Center
08:58PM 42.5239 -74.6917 68° East 396 456 15,200 -1,800 Descending Boston Center
08:59PM 42.5522 -74.5811 71° East 399 459 13,900 -1,800 Descending Boston Center
08:59PM 42.5614 -74.5417 72° East 392 451 13,400 -1,800 Descending Boston Center
09:00PM 42.5744 -74.4444 80° East 373 429 12,100 -1,920 Descending Boston Center
09:00PM 42.5722 -74.4058 94° East 351 404 11,500 -1,800 Descending Boston Center
09:01PM 42.5694 -74.3200 92° East 332 382 10,300 -1,680 Descending Boston Center
09:01PM 42.5669 -74.2847 95° East 309 356 9,900 -1,500 Descending Boston Center
09:02PM 42.5647 -74.2097 92° East 296 341 8,800 -1,800 Descending Boston Center
09:02PM 42.5628 -74.1814 95° East 271 312 8,100 -2,220 Descending Boston Center
09:03PM 42.5625 -74.0794 90° East 261 300 6,000 -2,040 Descending Boston Center
09:04PM 42.5636 -74.0042 89° East 263 303 4,500 -1,920 Descending Boston Center
09:04PM 42.5611 -73.9831 99° East 259 298 4,100 -540 Descending Boston Center
09:05PM 42.5614 -73.9153 90° East 235 270 4,000 -540 Descending Boston Center
09:05PM 42.5667 -73.8950 71° East 206 237 3,600 -1,440 Descending Boston Center
09:06PM 42.5850 -73.8478 62° Northeast 200 230 2,600 -1,080 Descending Boston Center
09:06PM 42.5936 -73.8314 54° Northeast 184 212 2,500 -120 Descending Boston Center
09:07PM 42.6225 -73.8103 28° Northeast 165 190 2,500 -420 Level Boston Center
09:07PM 42.6336 -73.8011 31° Northeast 154 177 2,100 -720 Descending Boston Center
09:08PM 42.6678 -73.8014 360° North 158 182 1,800 -480 Descending Boston Center
09:09PM 42.6739 -73.8033 347° North 142 163 1,600 -720 Descending Boston Center
09:09PM 42.7022 -73.8031 360° North 131 151 1,100 -600 Descending Boston Center
09:10PM 42.7083 -73.8031 360° North 118 136 1,000 -720 Descending Boston Center
09:10PM 42.7372 -73.8058 356° North 128 147 400 -480 Descending Boston Center
09:11PM 42.7717 -73.8094 356° North 128 147 200 -240 Descending Boston Center